createdAt,value
2019-01-24T00:01:51.729Z,-7.40
2019-01-24T00:04:22.303Z,-7.50
2019-01-24T00:06:52.856Z,-7.50
2019-01-24T00:09:23.382Z,-7.30
2019-01-24T00:11:53.914Z,-7.30
2019-01-24T00:14:24.487Z,-7.50
2019-01-24T00:16:55.039Z,-7.20
2019-01-24T00:19:25.608Z,-7.40
2019-01-24T00:21:56.130Z,-7.60
2019-01-24T00:24:26.735Z,-7.40
2019-01-24T00:26:57.316Z,-7.50
2019-01-24T00:29:27.929Z,-7.30
2019-01-24T00:31:58.491Z,-7.50
2019-01-24T00:34:29.089Z,-7.50
2019-01-24T00:36:59.639Z,-7.30
2019-01-24T00:39:30.233Z,-7.30
2019-01-24T00:42:00.832Z,-7.20
2019-01-24T00:44:31.467Z,-7.30
2019-01-24T00:47:02.004Z,-7.30
2019-01-24T00:49:32.552Z,-7.20
2019-01-24T00:52:03.098Z,-7.20
2019-01-24T00:54:33.680Z,-7.20
2019-01-24T00:57:04.295Z,-7.00
2019-01-24T00:59:34.829Z,-7.00
2019-01-24T01:02:05.405Z,-7.00
2019-01-24T01:04:35.958Z,-7.20
2019-01-24T01:07:06.660Z,-7.10
2019-01-24T01:09:37.220Z,-6.90
2019-01-24T01:12:07.783Z,-6.80
2019-01-24T01:14:38.317Z,-6.80
2019-01-24T01:17:08.907Z,-6.80
2019-01-24T01:19:39.470Z,-6.90
2019-01-24T01:22:10.124Z,-6.80
2019-01-24T01:24:40.704Z,-6.70
2019-01-24T01:27:11.265Z,-6.80
2019-01-24T01:29:41.838Z,-6.70
2019-01-24T01:32:12.429Z,-6.80
2019-01-24T01:34:42.963Z,-6.60
2019-01-24T01:37:13.484Z,-6.60
2019-01-24T01:39:44.043Z,-6.50
2019-01-24T01:42:14.589Z,-6.70
2019-01-24T01:44:45.195Z,-6.70
2019-01-24T01:47:15.748Z,-6.60
2019-01-24T01:49:46.292Z,-6.70
2019-01-24T01:52:16.831Z,-6.80
2019-01-24T01:54:47.391Z,-6.80
2019-01-24T01:57:17.979Z,-6.60
2019-01-24T01:59:48.597Z,-6.90
2019-01-24T02:02:19.250Z,-6.90
2019-01-24T02:04:49.890Z,-6.90
2019-01-24T02:07:20.411Z,-6.70
2019-01-24T02:09:50.945Z,-6.60
2019-01-24T02:12:21.476Z,-6.80
2019-01-24T02:14:52.015Z,-6.70
2019-01-24T02:17:22.580Z,-6.70
2019-01-24T02:19:53.184Z,-6.60
2019-01-24T02:22:23.756Z,-6.70
2019-01-24T02:24:54.268Z,-6.80
2019-01-24T02:27:24.819Z,-6.60
2019-01-24T02:29:55.358Z,-6.80
2019-01-24T02:32:25.896Z,-6.60
2019-01-24T02:34:56.443Z,-6.70
2019-01-24T02:37:27.008Z,-6.80
2019-01-24T02:39:57.576Z,-6.70
2019-01-24T02:42:28.116Z,-6.70
2019-01-24T02:44:58.707Z,-6.60
2019-01-24T02:47:29.384Z,-6.60
2019-01-24T02:49:59.929Z,-6.80
2019-01-24T02:52:30.447Z,-6.40
2019-01-24T02:55:00.979Z,-6.40
2019-01-24T02:57:31.548Z,-6.70
2019-01-24T03:00:02.067Z,-6.60
2019-01-24T03:02:32.646Z,-6.50
2019-01-24T03:05:03.187Z,-6.50
2019-01-24T03:07:34.003Z,-6.50
2019-01-24T03:10:05.256Z,-6.50
2019-01-24T03:12:35.804Z,-6.60
2019-01-24T03:15:07.455Z,-6.70
2019-01-24T03:17:38.025Z,-6.80
2019-01-24T03:20:10.621Z,-6.30
2019-01-24T03:22:41.175Z,-6.90
2019-01-24T03:25:12.231Z,-6.80
2019-01-24T03:27:42.804Z,-6.80
2019-01-24T03:30:15.474Z,-7.00
2019-01-24T03:32:46.018Z,-6.80
2019-01-24T03:35:24.796Z,-6.80
2019-01-24T03:37:55.367Z,-6.90
2019-01-24T03:40:25.949Z,-7.00
2019-01-24T03:42:56.519Z,-7.00
2019-01-24T03:45:27.051Z,-7.00
2019-01-24T03:47:57.592Z,-6.80
2019-01-24T03:50:28.153Z,-6.90
2019-01-24T03:52:58.700Z,-6.80
2019-01-24T03:55:29.236Z,-6.70
2019-01-24T03:57:59.768Z,-6.80
2019-01-24T04:00:30.328Z,-6.80
2019-01-24T04:03:00.858Z,-7.00
2019-01-24T04:05:31.420Z,-6.90
2019-01-24T04:08:01.952Z,-7.00
2019-01-24T04:10:32.523Z,-6.90
2019-01-24T04:13:03.078Z,-6.90
2019-01-24T04:15:33.592Z,-6.90
2019-01-24T04:18:04.129Z,-7.00
2019-01-24T04:20:34.663Z,-7.00
2019-01-24T04:23:05.223Z,-6.90
2019-01-24T04:25:35.757Z,-7.00
2019-01-24T04:28:06.327Z,-7.00
2019-01-24T04:30:37.144Z,-7.10
2019-01-24T04:33:07.702Z,-7.10
2019-01-24T04:35:38.252Z,-7.10
2019-01-24T04:38:08.756Z,-7.10
2019-01-24T04:40:39.299Z,-7.10
2019-01-24T04:43:09.824Z,-7.20
2019-01-24T04:45:40.377Z,-7.10
2019-01-24T04:48:10.969Z,-7.10
2019-01-24T04:50:41.557Z,-7.20
2019-01-24T04:53:12.133Z,-7.40
2019-01-24T04:55:42.680Z,-7.40
2019-01-24T04:58:13.212Z,-7.40
2019-01-24T05:00:43.756Z,-7.20
2019-01-24T05:03:14.272Z,-7.20
2019-01-24T05:05:44.802Z,-7.40
2019-01-24T05:08:16.968Z,-7.20
2019-01-24T05:10:47.587Z,-7.10
2019-01-24T05:13:18.185Z,-7.20
2019-01-24T05:15:48.704Z,-7.40
2019-01-24T05:18:19.247Z,-7.50
2019-01-24T05:20:50.635Z,-7.40
2019-01-24T05:23:21.203Z,-7.30
2019-01-24T05:25:51.776Z,-7.20
2019-01-24T05:28:22.305Z,-7.40
2019-01-24T05:30:52.854Z,-7.40
2019-01-24T05:33:23.382Z,-7.40
2019-01-24T05:35:53.923Z,-7.40
2019-01-24T05:38:24.500Z,-7.20
2019-01-24T05:40:55.169Z,-7.40
2019-01-24T05:43:25.733Z,-7.40
2019-01-24T05:45:56.301Z,-7.40
2019-01-24T05:48:26.901Z,-7.40
2019-01-24T05:50:57.476Z,-7.60
2019-01-24T05:53:28.035Z,-7.40
2019-01-24T05:55:58.575Z,-7.30
2019-01-24T05:58:29.139Z,-7.40
2019-01-24T06:00:59.811Z,-7.50
2019-01-24T06:03:30.339Z,-7.30
2019-01-24T06:06:00.915Z,-7.70
2019-01-24T06:08:31.485Z,-7.40
2019-01-24T06:11:02.031Z,-7.30
2019-01-24T06:13:32.616Z,-7.60
2019-01-24T06:16:03.152Z,-7.40
2019-01-24T06:18:33.703Z,-7.30
2019-01-24T06:21:04.260Z,-7.70
2019-01-24T06:23:34.852Z,-7.80
2019-01-24T06:26:05.444Z,-7.70
2019-01-24T06:28:35.979Z,-7.80
2019-01-24T06:31:06.679Z,-7.80
2019-01-24T06:33:37.223Z,-7.50
2019-01-24T06:36:07.810Z,-7.80
2019-01-24T06:38:38.311Z,-7.60
2019-01-24T06:41:08.849Z,-7.70
2019-01-24T06:43:39.407Z,-7.50
2019-01-24T06:46:09.959Z,-7.60
2019-01-24T06:48:40.540Z,-7.70
2019-01-24T06:51:11.123Z,-7.40
2019-01-24T06:53:41.690Z,-7.60
2019-01-24T06:56:12.267Z,-7.60
2019-01-24T06:58:42.820Z,-7.50
2019-01-24T07:01:13.380Z,-7.60
2019-01-24T07:03:44.011Z,-7.50
2019-01-24T07:06:14.576Z,-7.50
2019-01-24T07:08:45.115Z,-7.40
2019-01-24T07:11:15.683Z,-7.40
2019-01-24T07:13:46.224Z,-7.60
2019-01-24T07:16:16.777Z,-7.50
2019-01-24T07:18:47.367Z,-7.20
2019-01-24T07:21:18.219Z,-7.20
2019-01-24T07:23:48.792Z,-7.20
2019-01-24T07:26:19.336Z,-7.20
2019-01-24T07:28:49.879Z,-7.30
2019-01-24T07:31:20.440Z,-7.40
2019-01-24T07:33:51.031Z,-7.30
2019-01-24T07:36:21.612Z,-7.10
2019-01-24T07:38:52.212Z,-7.00
2019-01-24T07:41:22.743Z,-7.00
2019-01-24T07:43:53.323Z,-7.10
2019-01-24T07:46:23.863Z,-6.90
2019-01-24T07:48:54.484Z,-6.90
2019-01-24T07:51:25.038Z,-7.00
2019-01-24T07:53:55.573Z,-6.90
2019-01-24T07:56:26.221Z,-6.90
2019-01-24T07:58:56.760Z,-6.90
2019-01-24T08:01:27.316Z,-6.60
2019-01-24T08:03:58.500Z,-6.80
2019-01-24T08:06:29.143Z,-6.60
2019-01-24T08:08:59.672Z,-6.70
2019-01-24T08:11:30.275Z,-6.70
2019-01-24T08:14:00.819Z,-6.80
2019-01-24T08:16:31.480Z,-7.00
2019-01-24T08:19:02.417Z,-6.80
2019-01-24T08:21:33.067Z,-6.90
2019-01-24T08:24:03.647Z,-6.90
2019-01-24T08:26:34.240Z,-6.70
2019-01-24T08:29:04.784Z,-6.60
2019-01-24T08:31:35.407Z,-6.60
2019-01-24T08:34:05.933Z,-6.30
2019-01-24T08:36:36.540Z,-6.40
2019-01-24T08:39:09.326Z,-6.50
2019-01-24T08:41:39.951Z,-6.60
2019-01-24T08:44:11.671Z,-6.80
2019-01-24T08:46:42.215Z,-6.80
2019-01-24T08:49:12.843Z,-6.90
2019-01-24T08:51:43.408Z,-7.00
2019-01-24T08:54:14.008Z,-6.90
2019-01-24T08:56:44.592Z,-6.90
2019-01-24T08:59:15.233Z,-7.20
2019-01-24T09:01:45.756Z,-7.40
2019-01-24T09:04:16.336Z,-7.50
2019-01-24T09:06:50.127Z,-7.30
2019-01-24T09:09:20.648Z,-7.60
2019-01-24T09:11:51.311Z,-7.40
2019-01-24T09:14:21.923Z,-7.70
2019-01-24T09:16:52.507Z,-7.50
2019-01-24T09:19:23.993Z,-7.80
2019-01-24T09:21:54.583Z,-7.90
2019-01-24T09:24:25.144Z,-7.70
2019-01-24T09:26:55.799Z,-7.60
2019-01-24T09:29:26.382Z,-7.70
2019-01-24T09:31:56.898Z,-7.60
2019-01-24T09:34:27.492Z,-7.80
2019-01-24T09:36:58.999Z,-7.60
2019-01-24T09:39:29.633Z,-7.60
2019-01-24T09:42:00.279Z,-7.60
2019-01-24T09:44:30.884Z,-7.40
2019-01-24T09:47:01.463Z,-7.60
2019-01-24T09:49:32.087Z,-7.40
2019-01-24T09:52:02.685Z,-7.70
2019-01-24T09:54:33.291Z,-7.70
2019-01-24T09:57:03.817Z,-7.40
2019-01-24T09:59:34.349Z,-7.30
2019-01-24T10:02:04.995Z,-7.30
2019-01-24T10:04:35.679Z,-7.30
2019-01-24T10:07:06.239Z,-7.40
2019-01-24T10:09:36.808Z,-7.40
2019-01-24T10:12:07.391Z,-7.40
2019-01-24T10:14:37.940Z,-7.30
2019-01-24T10:17:08.580Z,-7.10
2019-01-24T10:19:39.179Z,-7.10
2019-01-24T10:22:09.779Z,-7.30
2019-01-24T10:24:40.595Z,-7.00
2019-01-24T10:27:11.231Z,-7.00
2019-01-24T10:29:41.836Z,-6.90
2019-01-24T10:32:12.355Z,-7.00
2019-01-24T10:34:42.940Z,-7.10
2019-01-24T10:37:13.511Z,-6.70
2019-01-24T10:39:44.185Z,-6.80
2019-01-24T10:42:14.723Z,-6.70
2019-01-24T10:44:45.308Z,-6.60
2019-01-24T10:47:15.896Z,-6.60
2019-01-24T10:52:25.838Z,-6.70
2019-01-24T10:54:56.395Z,-6.60
2019-01-24T10:57:26.996Z,-6.60
2019-01-24T10:59:57.582Z,-6.60
2019-01-24T11:02:28.598Z,-6.50
2019-01-24T11:04:59.179Z,-6.50
2019-01-24T11:07:29.731Z,-6.60
2019-01-24T11:10:00.273Z,-6.40
2019-01-24T11:12:30.852Z,-6.40
2019-01-24T11:15:01.385Z,-6.40
2019-01-24T11:17:32.407Z,-6.50
2019-01-24T11:20:02.979Z,-6.20
2019-01-24T11:22:33.848Z,-6.40
2019-01-24T11:25:04.464Z,-6.30
2019-01-24T11:27:35.015Z,-6.20
2019-01-24T11:30:06.599Z,-6.10
2019-01-24T11:32:37.163Z,-6.20
2019-01-24T11:35:10.373Z,-6.00
2019-01-24T11:37:40.899Z,-5.90
2019-01-24T11:40:13.473Z,-6.10
2019-01-24T11:42:43.983Z,-6.00
2019-01-24T11:45:15.094Z,-6.00
2019-01-24T11:47:45.643Z,-6.10
2019-01-24T11:50:17.792Z,-5.90
2019-01-24T11:52:48.363Z,-5.80
2019-01-24T11:55:20.096Z,-5.80
2019-01-24T11:57:50.667Z,-5.70
2019-01-24T12:00:38.221Z,-5.80
2019-01-24T12:03:08.793Z,-5.60
2019-01-24T12:05:39.827Z,-5.70
2019-01-24T12:08:10.426Z,-5.50
2019-01-24T12:10:40.927Z,-5.70
2019-01-24T12:13:11.524Z,-5.40
2019-01-24T12:15:42.090Z,-5.70
2019-01-24T12:18:12.639Z,-5.60
2019-01-24T12:20:43.196Z,-5.60
2019-01-24T12:23:13.836Z,-5.60
2019-01-24T12:25:44.392Z,-5.50
2019-01-24T12:28:14.956Z,-5.50
2019-01-24T12:30:45.495Z,-5.40
2019-01-24T12:33:16.055Z,-5.60
2019-01-24T12:35:48.164Z,-5.60
2019-01-24T12:38:18.699Z,-5.50
2019-01-24T12:40:49.294Z,-5.40
2019-01-24T12:43:19.785Z,-5.40
2019-01-24T12:45:50.340Z,-5.50
2019-01-24T12:48:20.934Z,-5.30
2019-01-24T12:50:51.511Z,-5.50
2019-01-24T12:53:22.080Z,-5.30
2019-01-24T12:55:52.644Z,-5.50
2019-01-24T12:58:23.217Z,-5.30
2019-01-24T13:00:53.739Z,-5.50
2019-01-24T13:03:24.307Z,-5.50
2019-01-24T13:05:54.863Z,-5.30
2019-01-24T13:08:25.428Z,-5.50
2019-01-24T13:10:55.980Z,-5.20
2019-01-24T13:13:26.504Z,-5.50
2019-01-24T13:15:57.115Z,-5.50
2019-01-24T13:18:27.732Z,-5.50
2019-01-24T13:20:58.275Z,-5.20
2019-01-24T13:23:28.867Z,-5.60
2019-01-24T13:25:59.524Z,-5.50
2019-01-24T13:28:30.436Z,-5.60
2019-01-24T13:31:02.062Z,-5.50
2019-01-24T13:33:32.615Z,-5.70
2019-01-24T13:36:03.199Z,-5.40
2019-01-24T13:38:33.847Z,-5.60
2019-01-24T13:41:04.384Z,-5.70
2019-01-24T13:43:34.989Z,-5.60
2019-01-24T13:46:05.543Z,-5.70
2019-01-24T13:48:36.132Z,-5.60
2019-01-24T13:51:06.660Z,-5.90
2019-01-24T13:53:37.211Z,-5.80
2019-01-24T13:56:07.730Z,-6.10
2019-01-24T13:58:39.295Z,-5.70
2019-01-24T14:01:10.135Z,-6.00
2019-01-24T14:03:49.571Z,-6.10
2019-01-24T14:06:21.124Z,-6.20
2019-01-24T14:08:51.689Z,-6.30
2019-01-24T14:11:22.265Z,-6.30
2019-01-24T14:13:52.865Z,-6.30
2019-01-24T14:16:23.419Z,-6.40
2019-01-24T14:18:53.975Z,-6.30
2019-01-24T14:21:24.527Z,-6.40
2019-01-24T14:23:55.172Z,-6.50
2019-01-24T14:26:25.723Z,-6.70
2019-01-24T14:28:56.314Z,-6.60
2019-01-24T14:31:26.849Z,-6.80
2019-01-24T14:33:57.415Z,-6.70
2019-01-24T14:36:28.116Z,-6.90
2019-01-24T14:38:58.673Z,-6.90
2019-01-24T14:41:29.244Z,-7.00
2019-01-24T14:43:59.796Z,-6.90
2019-01-24T14:46:30.345Z,-7.10
2019-01-24T14:49:00.903Z,-7.10
2019-01-24T14:51:31.483Z,-7.10
2019-01-24T14:54:02.059Z,-7.00
2019-01-24T14:56:32.627Z,-7.30
2019-01-24T14:59:03.215Z,-7.40
2019-01-24T15:01:33.821Z,-7.40
2019-01-24T15:04:04.427Z,-7.50
2019-01-24T15:06:34.991Z,-7.60
2019-01-24T15:09:08.744Z,-7.60
2019-01-24T15:11:39.361Z,-7.40
2019-01-24T15:14:09.884Z,-7.70
2019-01-24T15:16:40.415Z,-7.60
2019-01-24T15:19:10.927Z,-7.90
2019-01-24T15:21:41.472Z,-7.60
2019-01-24T15:24:12.017Z,-7.80
2019-01-24T15:26:42.611Z,-7.80
2019-01-24T15:29:13.152Z,-7.80
2019-01-24T15:31:43.732Z,-7.80
2019-01-24T15:34:14.271Z,-7.90
2019-01-24T15:36:44.827Z,-7.90
2019-01-24T15:39:15.402Z,-7.50
2019-01-24T15:41:45.947Z,-7.50
2019-01-24T15:44:16.567Z,-7.50
2019-01-24T15:46:47.138Z,-7.50
2019-01-24T15:49:17.675Z,-7.90
2019-01-24T15:51:48.264Z,-7.50
2019-01-24T15:54:18.893Z,-7.70
2019-01-24T15:56:49.443Z,-7.80
2019-01-24T15:59:20.069Z,-7.90
2019-01-24T16:01:50.655Z,-7.90
2019-01-24T16:04:21.248Z,-7.70
2019-01-24T16:06:51.873Z,-8.00
2019-01-24T16:09:22.448Z,-7.60
2019-01-24T16:11:53.000Z,-7.70
2019-01-24T16:14:23.551Z,-7.70
2019-01-24T16:16:54.104Z,-7.90
2019-01-24T16:19:24.642Z,-7.70
2019-01-24T16:21:55.231Z,-8.00
2019-01-24T16:24:25.830Z,-7.90
2019-01-24T16:26:56.408Z,-7.70
2019-01-24T16:29:26.977Z,-7.70
2019-01-24T16:31:57.587Z,-8.00
2019-01-24T16:34:28.128Z,-8.10
2019-01-24T16:36:58.668Z,-7.80
2019-01-24T16:39:29.222Z,-8.00
2019-01-24T16:41:59.808Z,-7.90
2019-01-24T16:44:30.379Z,-7.90
2019-01-24T16:47:00.971Z,-7.80
2019-01-24T16:49:31.499Z,-7.80
2019-01-24T16:52:02.076Z,-8.10
2019-01-24T16:54:32.670Z,-8.10
2019-01-24T16:57:03.195Z,-7.90
2019-01-24T16:59:33.834Z,-8.10
2019-01-24T17:02:04.456Z,-8.10
2019-01-24T17:04:35.010Z,-7.80
2019-01-24T17:07:05.589Z,-8.20
2019-01-24T17:09:36.152Z,-8.00
2019-01-24T17:12:06.767Z,-8.00
2019-01-24T17:14:37.320Z,-8.10
2019-01-24T17:17:07.879Z,-7.80
2019-01-24T17:19:38.475Z,-7.90
2019-01-24T17:22:09.028Z,-8.10
2019-01-24T17:24:39.600Z,-8.00
2019-01-24T17:27:10.210Z,-8.10
2019-01-24T17:29:40.898Z,-8.10
2019-01-24T17:32:11.456Z,-8.10
2019-01-24T17:34:42.056Z,-8.00
2019-01-24T17:37:12.620Z,-8.30
2019-01-24T17:39:43.178Z,-8.30
2019-01-24T17:42:13.699Z,-8.30
2019-01-24T17:44:44.276Z,-8.30
2019-01-24T17:47:14.866Z,-8.20
2019-01-24T17:49:45.493Z,-8.30
2019-01-24T17:52:16.047Z,-8.30
2019-01-24T17:54:46.620Z,-8.10
2019-01-24T17:57:17.167Z,-8.30
2019-01-24T17:59:47.755Z,-8.30
2019-01-24T18:02:18.277Z,-8.30
2019-01-24T18:04:48.808Z,-8.30
2019-01-24T18:07:19.354Z,-8.40
2019-01-24T18:09:49.926Z,-8.30
2019-01-24T18:12:20.501Z,-8.20
2019-01-24T18:14:51.059Z,-8.40
2019-01-24T18:17:21.680Z,-8.40
2019-01-24T18:19:52.746Z,-8.40
2019-01-24T18:22:23.309Z,-8.40
2019-01-24T18:24:53.944Z,-8.50
2019-01-24T18:27:24.503Z,-8.50
2019-01-24T18:29:55.079Z,-8.50
2019-01-24T18:32:25.644Z,-8.40
2019-01-24T18:34:56.335Z,-8.70
2019-01-24T18:37:26.923Z,-8.60
2019-01-24T18:39:57.514Z,-8.40
2019-01-24T18:42:28.193Z,-8.60
2019-01-24T18:44:58.816Z,-8.70
2019-01-24T18:47:29.582Z,-8.60
2019-01-24T18:50:00.189Z,-8.60
2019-01-24T18:52:30.708Z,-8.60
2019-01-24T18:55:01.306Z,-8.60
2019-01-24T18:57:31.841Z,-8.60
2019-01-24T19:00:02.409Z,-8.70
2019-01-24T19:02:32.980Z,-8.70
2019-01-24T19:05:03.591Z,-8.40
2019-01-24T19:07:34.197Z,-8.40
2019-01-24T19:10:05.686Z,-8.60
2019-01-24T19:12:36.237Z,-8.60
2019-01-24T19:15:09.165Z,-8.60
2019-01-24T19:17:39.748Z,-8.60
2019-01-24T19:20:11.433Z,-8.60
2019-01-24T19:22:42.055Z,-8.70
2019-01-24T19:25:12.791Z,-8.70
2019-01-24T19:27:44.048Z,-8.80
2019-01-24T19:30:18.568Z,-8.70
2019-01-24T19:32:49.095Z,-8.70
2019-01-24T19:35:19.773Z,-8.90
2019-01-24T19:37:50.319Z,-8.70
2019-01-24T19:40:21.836Z,-9.10
2019-01-24T19:42:52.392Z,-8.90
2019-01-24T19:45:25.808Z,-9.00
2019-01-24T19:47:56.335Z,-9.00
2019-01-24T19:50:27.941Z,-9.00
2019-01-24T19:52:58.917Z,-9.10
2019-01-24T19:55:29.645Z,-9.00
2019-01-24T19:58:00.207Z,-9.20
2019-01-24T20:00:31.875Z,-9.10
2019-01-24T20:03:02.472Z,-8.90
2019-01-24T20:05:33.027Z,-9.10
2019-01-24T20:08:03.585Z,-9.10
2019-01-24T20:10:34.179Z,-9.00
2019-01-24T20:13:04.762Z,-9.00
2019-01-24T20:15:35.335Z,-9.10
2019-01-24T20:18:06.845Z,-9.10
2019-01-24T20:20:37.745Z,-9.20
2019-01-24T20:23:08.511Z,-8.90
2019-01-24T20:25:39.062Z,-9.00
2019-01-24T20:28:09.699Z,-9.20
2019-01-24T20:30:40.253Z,-9.30
2019-01-24T20:33:10.909Z,-9.10
2019-01-24T20:35:47.169Z,-9.00
2019-01-24T20:38:17.756Z,-9.00
2019-01-24T20:40:48.295Z,-9.20
2019-01-24T20:43:18.831Z,-9.20
2019-01-24T20:45:49.385Z,-9.20
2019-01-24T20:48:19.937Z,-9.20
2019-01-24T20:50:50.527Z,-9.30
2019-01-24T20:53:21.106Z,-9.20
2019-01-24T20:55:51.687Z,-9.30
2019-01-24T20:58:22.258Z,-9.20
2019-01-24T21:00:52.820Z,-9.10
2019-01-24T21:03:23.396Z,-9.40
2019-01-24T21:05:53.947Z,-9.20
2019-01-24T21:08:24.532Z,-9.20
2019-01-24T21:10:55.113Z,-9.40
2019-01-24T21:13:25.640Z,-9.40
2019-01-24T21:15:56.237Z,-9.30
2019-01-24T21:18:26.991Z,-9.40
2019-01-24T21:20:57.566Z,-9.40
2019-01-24T21:23:28.154Z,-9.30
2019-01-24T21:25:58.697Z,-9.40
2019-01-24T21:28:29.307Z,-9.30
2019-01-24T21:30:59.860Z,-9.30
2019-01-24T21:33:30.477Z,-9.40
2019-01-24T21:36:01.078Z,-9.30
2019-01-24T21:38:31.677Z,-9.40
2019-01-24T21:41:02.391Z,-9.50
2019-01-24T21:43:32.996Z,-9.20
2019-01-24T21:46:03.608Z,-9.50
2019-01-24T21:48:34.172Z,-9.20
2019-01-24T21:51:10.947Z,-9.30
2019-01-24T21:53:36.852Z,-9.20
2019-01-24T21:56:07.472Z,-9.40
2019-01-24T21:58:38.041Z,-9.30
2019-01-24T22:01:08.681Z,-9.50
2019-01-24T22:03:39.245Z,-9.20
2019-01-24T22:06:09.846Z,-9.50
2019-01-24T22:08:40.474Z,-9.40
2019-01-24T22:11:11.092Z,-9.30
2019-01-24T22:13:41.646Z,-9.40
2019-01-24T22:16:12.308Z,-9.40
2019-01-24T22:18:42.855Z,-9.20
2019-01-24T22:21:13.453Z,-9.30
2019-01-24T22:23:44.009Z,-9.30
2019-01-24T22:26:14.547Z,-9.30
2019-01-24T22:28:45.163Z,-9.40
2019-01-24T22:31:15.792Z,-9.50
2019-01-24T22:33:46.368Z,-9.40
2019-01-24T22:36:17.017Z,-9.50
2019-01-24T22:38:47.623Z,-9.40
2019-01-24T22:41:18.215Z,-9.60
2019-01-24T22:43:48.774Z,-9.40
2019-01-24T22:46:19.456Z,-9.50
2019-01-24T22:49:26.503Z,-9.30
2019-01-24T22:51:57.063Z,-9.40
2019-01-24T22:54:28.061Z,-9.40
2019-01-24T22:56:59.798Z,-9.40
2019-01-24T22:59:30.391Z,-9.40
2019-01-24T23:02:09.663Z,-9.50
2019-01-24T23:04:40.248Z,-9.30
2019-01-24T23:07:10.879Z,-9.40
2019-01-24T23:09:44.147Z,-9.40
2019-01-24T23:12:13.596Z,-9.40
2019-01-24T23:14:44.218Z,-9.40
2019-01-24T23:17:14.864Z,-9.40
2019-01-24T23:19:45.400Z,-9.20
2019-01-24T23:22:16.050Z,-9.40
2019-01-24T23:24:46.619Z,-9.40
2019-01-24T23:27:17.241Z,-9.20
2019-01-24T23:29:47.743Z,-9.30
2019-01-24T23:32:18.332Z,-9.20
2019-01-24T23:34:48.953Z,-9.00
2019-01-24T23:37:19.530Z,-9.10
2019-01-24T23:39:52.410Z,-9.00
2019-01-24T23:42:22.293Z,-9.00
2019-01-24T23:44:52.865Z,-8.90
2019-01-24T23:47:23.424Z,-8.80
2019-01-24T23:49:53.975Z,-8.70
2019-01-24T23:52:24.519Z,-8.50
2019-01-24T23:54:55.082Z,-8.70
2019-01-24T23:57:25.668Z,-8.30
2019-01-24T23:59:56.259Z,-8.50
